Time;durP1;ratioP1;P1;durP2;ratioP2;P2;SDS_P1;SDS_P2;PMS_P1;PMS_P2;Temp;Humidity;BMP_temperature;BMP_pressure;BME280_temperature;BME280_humidity;BME280_pressure;Samples;Min_cycle;Max_cycle;Signal;HPM_P1;HPM_P2
2022/09/21 00:02:23;;;;;;;71.20;5.88;;;;;;;7.73;100.00;98767.75;5038493;28;20098;-60
2022/09/21 00:04:49;;;;;;;59.40;5.60;;;;;;;7.79;100.00;98769.38;5039233;28;20041;-61
2022/09/21 00:07:15;;;;;;;54.60;5.68;;;;;;;7.53;100.00;98762.88;5039371;28;20036;-57
2022/09/21 00:09:41;;;;;;;49.22;5.63;;;;;;;7.58;100.00;98758.47;5040112;28;20025;-59
2022/09/21 00:12:06;;;;;;;35.63;5.03;;;;;;;7.28;100.00;98755.50;5037112;28;20118;-58
2022/09/21 00:14:31;;;;;;;32.30;5.15;;;;;;;7.37;100.00;98758.81;5039273;28;20048;-59
2022/09/21 00:16:57;;;;;;;30.08;4.97;;;;;;;7.49;100.00;98756.03;5038895;28;20172;-58
2022/09/21 00:19:22;;;;;;;36.38;5.60;;;;;;;6.89;100.00;98767.31;5039060;28;20033;-57
2022/09/21 00:21:47;;;;;;;35.13;4.95;;;;;;;7.18;100.00;98766.88;5039061;28;20445;-56
2022/09/21 00:24:13;;;;;;;35.30;5.25;;;;;;;7.36;100.00;98763.16;5040369;28;20476;-59
2022/09/21 00:26:38;;;;;;;28.63;4.32;;;;;;;7.38;100.00;98758.78;5020786;28;20399;-58
2022/09/21 00:29:04;;;;;;;27.95;4.90;;;;;;;7.47;100.00;98761.25;5039810;28;20025;-58
2022/09/21 00:31:30;;;;;;;41.53;5.15;;;;;;;7.55;100.00;98757.66;5038013;28;20037;-62
2022/09/21 00:33:58;;;;;;;33.65;5.05;;;;;;;7.28;100.00;98765.03;5038240;28;20024;-59
2022/09/21 00:36:25;;;;;;;40.05;5.40;;;;;;;7.26;100.00;98761.56;5036847;28;20033;-60
2022/09/21 00:38:52;;;;;;;28.90;4.72;;;;;;;7.17;100.00;98760.00;5038666;28;20021;-61
2022/09/21 00:41:18;;;;;;;26.58;4.68;;;;;;;7.47;100.00;98765.59;5036274;28;20121;-61
2022/09/21 00:43:47;;;;;;;27.40;4.60;;;;;;;7.34;100.00;98759.72;5039590;28;20024;-59
2022/09/21 00:46:31;;;;;;;39.50;4.43;;;;;;;7.04;100.00;98761.03;5038182;28;20095;-60
2022/09/21 00:48:57;;;;;;;34.65;5.38;;;;;;;7.57;100.00;98763.69;5040275;28;20067;-62
2022/09/21 00:51:23;;;;;;;49.83;4.68;;;;;;;7.10;100.00;98763.56;5037696;28;20033;-58
2022/09/21 00:53:53;;;;;;;52.03;5.25;;;;;;;6.77;100.00;98775.28;5039543;28;20029;-59
2022/09/21 00:56:19;;;;;;;59.92;4.95;;;;;;;6.64;100.00;98778.00;5038462;28;20049;-57
2022/09/21 00:58:49;;;;;;;46.08;5.15;;;;;;;7.08;100.00;98781.75;5039683;28;20402;-61
2022/09/21 01:01:17;;;;;;;42.50;4.45;;;;;;;6.71;100.00;98779.66;5037963;28;20045;-59
2022/09/21 01:03:44;;;;;;;49.97;5.35;;;;;;;6.72;100.00;98786.53;5038892;28;20029;-57
2022/09/21 01:06:11;;;;;;;35.00;4.85;;;;;;;7.29;100.00;98787.50;5037667;28;20052;-58
2022/09/21 01:08:37;;;;;;;39.20;4.68;;;;;;;7.42;100.00;98783.81;5038439;28;20035;-58
2022/09/21 01:11:28;;;;;;;45.78;4.28;;;;;;;7.32;100.00;98774.47;5038052;28;20033;-59
2022/09/21 01:14:05;;;;;;;51.78;5.20;;;;;;;7.29;100.00;98772.75;5038389;28;20033;-60
2022/09/21 01:17:02;;;;;;;41.95;4.55;;;;;;;7.30;100.00;98771.06;5037701;28;20037;-59
2022/09/21 01:19:48;;;;;;;31.40;4.70;;;;;;;6.98;100.00;98777.56;5024053;28;20068;-59
2022/09/21 01:22:50;;;;;;;23.42;4.00;;;;;;;7.16;100.00;98775.59;5036684;28;20250;-57
2022/09/21 01:25:37;;;;;;;25.60;4.05;;;;;;;7.78;100.00;98776.31;5037028;28;20112;-57
2022/09/21 01:28:19;;;;;;;34.33;5.18;;;;;;;7.32;100.00;98777.06;5037046;28;20082;-58
2022/09/21 01:30:48;;;;;;;41.00;5.57;;;;;;;7.01;100.00;98777.50;5034864;28;20037;-59
2022/09/21 01:33:25;;;;;;;28.92;4.40;;;;;;;7.25;100.00;98770.25;5037336;28;20036;-58
2022/09/21 01:35:56;;;;;;;25.70;3.92;;;;;;;6.95;100.00;98775.88;5037489;28;20044;-59
2022/09/21 01:38:34;;;;;;;36.95;4.65;;;;;;;7.42;100.00;98775.19;5037133;28;20052;-61
2022/09/21 01:41:03;;;;;;;47.28;5.30;;;;;;;7.25;100.00;98771.09;5034113;28;20044;-60
2022/09/21 01:43:36;;;;;;;34.97;4.43;;;;;;;7.09;100.00;98783.44;5037726;28;20028;-57
2022/09/21 01:46:04;;;;;;;51.47;4.55;;;;;;;6.91;100.00;98787.16;5034444;28;20414;-59
2022/09/21 01:48:34;;;;;;;112.22;6.20;;;;;;;7.00;100.00;98780.13;5036229;28;20024;-60
2022/09/21 01:51:03;;;;;;;131.80;6.68;;;;;;;7.21;100.00;98785.00;5034393;28;20047;-57
2022/09/21 01:53:39;;;;;;;74.05;5.50;;;;;;;7.05;100.00;98781.78;5036399;28;20087;-59
2022/09/21 01:56:34;;;;;;;51.55;4.70;;;;;;;6.72;100.00;98788.28;5037877;28;20041;-62
2022/09/21 01:59:18;;;;;;;77.32;5.50;;;;;;;6.80;100.00;98793.34;5037628;28;20028;-59
2022/09/21 02:01:58;;;;;;;192.70;6.55;;;;;;;6.82;100.00;98796.78;5036459;28;20091;-58
2022/09/21 02:04:24;;;;;;;110.38;7.32;;;;;;;6.66;100.00;98786.63;5037441;28;20502;-62
2022/09/21 02:06:51;;;;;;;318.42;9.52;;;;;;;6.49;100.00;98792.03;5037565;28;20141;-62
2022/09/21 02:09:16;;;;;;;94.57;5.90;;;;;;;7.18;100.00;98797.16;5037846;28;20720;-60
2022/09/21 02:11:43;;;;;;;79.82;5.78;;;;;;;6.65;100.00;98789.22;5036794;28;20041;-59
2022/09/21 02:14:11;;;;;;;61.42;6.40;;;;;;;6.52;100.00;98788.53;5036544;28;20530;-59
2022/09/21 02:16:43;;;;;;;75.82;6.00;;;;;;;6.54;100.00;98787.66;5037932;28;20083;-58
2022/09/21 02:19:20;;;;;;;42.15;5.55;;;;;;;7.25;100.00;98789.28;5037568;28;20094;-57
2022/09/21 02:21:56;;;;;;;66.30;5.32;;;;;;;6.72;100.00;98781.34;5036516;28;20051;-58
2022/09/21 02:24:42;;;;;;;43.58;5.38;;;;;;;7.50;100.00;98783.72;5037299;28;20572;-59
2022/09/21 02:27:23;;;;;;;32.10;4.20;;;;;;;7.21;100.00;98771.19;5037762;28;20709;-58
2022/09/21 02:30:08;;;;;;;45.22;4.97;;;;;;;7.11;100.00;98781.72;5036048;28;20032;-58
2022/09/21 02:32:50;;;;;;;23.92;3.97;;;;;;;7.11;100.00;98784.31;5036118;28;20044;-58
2022/09/21 02:35:21;;;;;;;32.95;4.47;;;;;;;7.66;100.00;98781.72;5037027;28;20056;-59
2022/09/21 02:37:57;;;;;;;29.95;4.25;;;;;;;7.42;100.00;98778.63;5038115;28;20017;-57
2022/09/21 02:40:32;;;;;;;32.13;4.35;;;;;;;7.42;100.00;98782.97;5036670;28;20434;-58
2022/09/21 02:43:07;;;;;;;32.63;4.70;;;;;;;7.83;100.00;98777.09;5036373;28;20025;-57
2022/09/21 02:45:47;;;;;;;30.20;4.40;;;;;;;7.70;100.00;98770.38;5037148;28;20040;-59
2022/09/21 02:48:17;;;;;;;118.38;6.45;;;;;;;6.71;100.00;98782.25;5037527;28;20773;-58
2022/09/21 02:51:01;;;;;;;77.18;5.88;;;;;;;7.55;100.00;98794.00;5036275;28;20490;-58
2022/09/21 02:53:32;;;;;;;38.95;4.25;;;;;;;7.26;100.00;98792.72;5037610;28;20029;-59
2022/09/21 02:56:05;;;;;;;85.10;5.63;;;;;;;7.55;100.00;98791.41;5036968;28;20083;-58
2022/09/21 02:58:36;;;;;;;79.60;4.63;;;;;;;7.20;100.00;98796.25;5037621;28;20414;-58
2022/09/21 03:01:06;;;;;;;36.42;4.90;;;;;;;7.24;100.00;98789.28;5035381;28;20049;-57
2022/09/21 03:03:31;;;;;;;83.40;6.25;;;;;;;7.34;100.00;98786.53;5039291;28;20028;-60
2022/09/21 03:05:57;;;;;;;54.00;4.80;;;;;;;7.17;100.00;98792.84;5039698;28;20102;-58
2022/09/21 03:08:23;;;;;;;67.75;5.18;;;;;;;6.88;100.00;98792.38;5039627;28;20098;-58
2022/09/21 03:10:49;;;;;;;36.20;4.97;;;;;;;6.98;100.00;98790.53;5039584;28;20446;-58
2022/09/21 03:13:15;;;;;;;74.95;6.05;;;;;;;7.43;100.00;98790.72;5040468;28;20552;-58
2022/09/21 03:15:41;;;;;;;90.88;5.47;;;;;;;7.48;100.00;98788.94;5040002;28;20049;-60
2022/09/21 03:18:08;;;;;;;51.80;5.68;;;;;;;7.19;100.00;98786.78;5041768;28;20395;-58
2022/09/21 03:20:35;;;;;;;55.83;5.60;;;;;;;7.55;100.00;98788.81;5038674;28;20033;-61
2022/09/21 03:23:01;;;;;;;75.65;4.95;;;;;;;7.33;100.00;98789.16;5041034;28;20547;-59
2022/09/21 03:25:28;;;;;;;130.65;7.38;;;;;;;7.06;100.00;98801.66;5038830;28;20574;-58
2022/09/21 03:27:54;;;;;;;186.70;9.80;;;;;;;6.74;100.00;98795.16;5039136;28;20056;-58
2022/09/21 03:30:21;;;;;;;145.30;5.97;;;;;;;7.11;100.00;98805.06;5040212;28;20025;-58
2022/09/21 03:32:53;;;;;;;193.82;6.90;;;;;;;6.50;100.00;98800.66;5039876;28;20021;-58
2022/09/21 03:35:20;;;;;;;232.38;7.13;;;;;;;6.30;100.00;98799.13;5036404;28;20031;-60
2022/09/21 03:37:46;;;;;;;405.83;10.20;;;;;;;6.65;100.00;98813.41;5041036;28;20082;-59
2022/09/21 03:40:12;;;;;;;260.92;9.00;;;;;;;6.73;100.00;98808.16;5040318;28;20028;-60
2022/09/21 03:42:39;;;;;;;214.68;7.10;;;;;;;6.87;100.00;98810.56;5032258;28;20086;-59
2022/09/21 03:45:06;;;;;;;234.35;7.63;;;;;;;6.91;100.00;98807.91;5039294;28;20075;-57
2022/09/21 03:47:31;;;;;;;283.40;10.38;;;;;;;6.74;100.00;98808.13;5040509;28;20048;-57
2022/09/21 03:49:56;;;;;;;253.65;7.85;;;;;;;6.91;100.00;98812.22;5039005;28;20039;-58
2022/09/21 03:52:22;;;;;;;105.30;6.03;;;;;;;6.25;100.00;98807.81;5038917;28;20036;-59
2022/09/21 03:54:47;;;;;;;241.38;6.95;;;;;;;6.78;100.00;98805.50;5040838;28;20141;-58
2022/09/21 03:57:13;;;;;;;245.98;7.43;;;;;;;6.89;100.00;98808.78;5040506;28;20041;-59
2022/09/21 03:59:38;;;;;;;89.45;5.07;;;;;;;6.67;100.00;98803.91;5040270;28;20440;-58
2022/09/21 04:02:03;;;;;;;105.10;5.97;;;;;;;7.09;100.00;98811.13;5038201;28;20072;-60
2022/09/21 04:04:29;;;;;;;68.30;5.43;;;;;;;6.78;100.00;98810.69;5040467;28;20508;-60
2022/09/21 04:06:54;;;;;;;56.58;5.40;;;;;;;6.94;100.00;98812.19;5039103;28;20498;-59
2022/09/21 04:09:20;;;;;;;25.92;4.68;;;;;;;6.58;100.00;98809.19;5040432;28;20543;-59
2022/09/21 04:11:47;;;;;;;41.63;4.82;;;;;;;6.86;100.00;98809.72;5037284;28;20055;-57
2022/09/21 04:14:12;;;;;;;29.70;4.53;;;;;;;6.95;100.00;98814.78;5039592;28;20023;-58
2022/09/21 04:16:38;;;;;;;26.20;3.88;;;;;;;6.52;100.00;98819.63;5038720;28;20041;-57
2022/09/21 04:19:03;;;;;;;45.63;5.18;;;;;;;6.84;100.00;98816.66;5038570;28;20054;-58
2022/09/21 04:21:29;;;;;;;37.67;4.30;;;;;;;6.64;100.00;98824.69;5039430;28;20427;-58
2022/09/21 04:23:55;;;;;;;45.63;4.22;;;;;;;6.93;100.00;98828.66;5032377;28;20094;-58
2022/09/21 04:26:28;;;;;;;60.90;4.70;;;;;;;6.92;100.00;98824.34;5039078;28;20045;-61
2022/09/21 04:28:56;;;;;;;73.05;5.60;;;;;;;6.81;100.00;98828.81;5039384;28;20037;-61
2022/09/21 04:31:23;;;;;;;71.97;5.07;;;;;;;6.83;100.00;98835.66;5038333;28;20045;-58
2022/09/21 04:33:49;;;;;;;97.75;5.53;;;;;;;6.73;100.00;98836.69;5038839;28;20029;-57
2022/09/21 04:36:19;;;;;;;75.93;6.10;;;;;;;6.65;100.00;98835.91;5038007;28;20064;-58
2022/09/21 04:38:45;;;;;;;96.68;5.75;;;;;;;6.80;100.00;98834.84;5041151;28;20028;-61
2022/09/21 04:41:11;;;;;;;192.88;6.22;;;;;;;6.17;100.00;98837.25;5036235;28;20055;-58
2022/09/21 04:43:40;;;;;;;66.25;5.20;;;;;;;6.87;100.00;98839.09;5038860;28;20079;-57
2022/09/21 04:46:11;;;;;;;70.60;5.75;;;;;;;6.56;100.00;98834.25;5031825;28;20033;-59
2022/09/21 04:48:37;;;;;;;45.33;5.45;;;;;;;6.83;100.00;98838.25;5037716;28;20017;-57
2022/09/21 04:51:03;;;;;;;73.93;5.78;;;;;;;6.69;100.00;98842.75;5036110;28;20079;-59
2022/09/21 04:53:29;;;;;;;134.45;6.53;;;;;;;6.31;100.00;98846.66;5039124;28;20565;-58
2022/09/21 04:55:54;;;;;;;50.78;5.28;;;;;;;6.95;100.00;98850.25;5039618;28;20118;-58
2022/09/21 04:58:21;;;;;;;89.70;5.53;;;;;;;6.70;100.00;98850.53;5039377;28;20033;-62
2022/09/21 05:00:51;;;;;;;104.70;7.07;;;;;;;6.20;100.00;98854.53;5037606;28;20128;-59
2022/09/21 05:03:20;;;;;;;89.57;5.60;;;;;;;6.39;100.00;98865.56;5039559;28;20021;-59
2022/09/21 05:05:51;;;;;;;55.03;5.15;;;;;;;6.62;100.00;98867.06;5039175;28;20055;-59
2022/09/21 05:08:17;;;;;;;115.30;6.30;;;;;;;6.60;100.00;98868.78;5037551;28;20090;-58
2022/09/21 05:10:43;;;;;;;103.82;6.90;;;;;;;6.84;100.00;98871.13;5037678;28;20040;-58
2022/09/21 05:13:09;;;;;;;86.63;5.00;;;;;;;6.77;100.00;98868.63;5038750;28;20079;-61
2022/09/21 05:15:38;;;;;;;59.42;4.53;;;;;;;6.91;100.00;98869.28;5037779;28;20068;-60
2022/09/21 05:18:03;;;;;;;71.80;5.20;;;;;;;7.00;100.00;98879.53;5038600;28;20025;-58
2022/09/21 05:20:29;;;;;;;30.13;4.13;;;;;;;7.30;100.00;98874.84;5036352;28;20114;-60
2022/09/21 05:22:54;;;;;;;81.20;5.55;;;;;;;7.03;100.00;98881.25;5038261;28;20024;-58
2022/09/21 05:25:19;;;;;;;63.28;5.30;;;;;;;6.69;100.00;98873.88;5038174;28;20044;-59
2022/09/21 05:27:45;;;;;;;56.78;4.55;;;;;;;6.78;100.00;98872.91;5037037;28;20098;-61
2022/09/21 05:30:11;;;;;;;70.70;4.78;;;;;;;7.00;100.00;98874.34;5037874;28;20863;-59
2022/09/21 05:32:53;;;;;;;43.97;4.97;;;;;;;6.84;100.00;98873.72;5038449;28;20099;-59
2022/09/21 05:35:47;;;;;;;35.45;4.00;;;;;;;6.55;100.00;98887.00;5038049;28;20033;-59
2022/09/21 05:38:17;;;;;;;59.88;4.60;;;;;;;7.15;100.00;98883.72;5037799;28;20398;-59
2022/09/21 05:40:43;;;;;;;76.63;6.38;;;;;;;6.85;100.00;98882.34;5035618;28;20446;-57
2022/09/21 05:43:10;;;;;;;57.50;5.28;;;;;;;6.84;100.00;98880.63;5038433;28;20029;-60
2022/09/21 05:45:39;;;;;;;47.72;4.43;;;;;;;7.13;100.00;98886.31;5037056;28;20033;-58
2022/09/21 05:48:16;;;;;;;47.90;4.95;;;;;;;6.79;100.00;98885.00;5035773;28;20123;-59
2022/09/21 05:50:48;;;;;;;52.90;5.80;;;;;;;6.76;100.00;98880.69;5036940;28;20040;-58
2022/09/21 05:53:28;;;;;;;75.80;5.00;;;;;;;7.12;100.00;98873.34;5036097;28;20491;-58
2022/09/21 05:56:21;;;;;;;58.88;5.43;;;;;;;7.16;100.00;98884.56;5033426;28;20403;-58
2022/09/21 05:58:59;;;;;;;78.35;5.20;;;;;;;7.33;100.00;98885.19;5050697;28;20031;-59
2022/09/21 06:01:33;;;;;;;120.00;6.60;;;;;;;6.98;100.00;98883.91;5036959;28;20040;-61
2022/09/21 06:04:01;;;;;;;61.50;5.55;;;;;;;7.67;100.00;98882.09;5037861;28;20048;-60
2022/09/21 06:06:26;;;;;;;207.80;8.85;;;;;;;7.31;100.00;98879.16;5037872;28;20041;-61
2022/09/21 06:08:52;;;;;;;155.57;7.72;;;;;;;7.23;100.00;98883.59;5037350;28;20028;-58
2022/09/21 06:11:18;;;;;;;144.20;6.70;;;;;;;7.34;100.00;98885.16;5036302;28;20045;-58
2022/09/21 06:13:43;;;;;;;224.35;7.95;;;;;;;7.56;100.00;98889.22;5013743;28;20027;-59
2022/09/21 06:16:09;;;;;;;314.77;9.52;;;;;;;7.52;100.00;98886.66;5036841;28;20052;-58
2022/09/21 06:18:39;;;;;;;97.57;6.30;;;;;;;7.98;100.00;98884.22;5036932;28;20035;-60
2022/09/21 06:21:06;;;;;;;104.90;6.35;;;;;;;7.27;100.00;98887.88;5034514;28;20079;-60
2022/09/21 06:23:32;;;;;;;161.15;7.57;;;;;;;7.76;100.00;98883.72;5037274;28;20056;-60
2022/09/21 06:25:57;;;;;;;128.65;6.68;;;;;;;7.38;100.00;98896.34;5034195;28;20169;-60
2022/09/21 06:28:22;;;;;;;131.10;7.47;;;;;;;8.34;100.00;98894.88;5034673;28;20102;-58
2022/09/21 06:30:52;;;;;;;205.75;9.60;;;;;;;8.32;100.00;98888.84;5035152;28;20514;-59
2022/09/21 06:33:20;;;;;;;134.65;7.10;;;;;;;8.46;100.00;98884.28;5037648;28;20060;-59
2022/09/21 06:35:55;;;;;;;118.43;6.32;;;;;;;8.30;100.00;98894.91;5038130;28;20041;-61
2022/09/21 06:38:21;;;;;;;229.63;7.55;;;;;;;8.17;100.00;98892.56;5037547;28;20056;-60
2022/09/21 06:40:46;;;;;;;193.85;9.70;;;;;;;8.26;100.00;98892.41;5035853;28;20505;-60
2022/09/21 06:43:11;;;;;;;226.13;7.93;;;;;;;8.32;100.00;98886.25;5037592;28;20109;-58
2022/09/21 06:45:37;;;;;;;270.80;10.10;;;;;;;7.48;100.00;98886.69;5035948;28;20119;-59
2022/09/21 06:48:02;;;;;;;209.27;9.05;;;;;;;8.29;100.00;98893.22;5037243;28;20021;-58
2022/09/21 06:50:27;;;;;;;151.90;7.47;;;;;;;8.92;100.00;98893.81;5029525;28;20175;-60
2022/09/21 06:52:53;;;;;;;243.45;10.70;;;;;;;8.69;100.00;98873.44;5036320;28;20034;-59
2022/09/21 06:55:18;;;;;;;26.30;5.72;;;;;;;9.06;100.00;98875.28;5030739;28;20071;-59
2022/09/21 06:57:44;;;;;;;94.75;7.68;;;;;;;9.21;100.00;98880.19;5036778;28;20104;-59
2022/09/21 07:00:11;;;;;;;39.13;5.88;;;;;;;9.69;100.00;98892.16;5037361;28;20086;-58
2022/09/21 07:02:37;;;;;;;152.63;10.18;;;;;;;8.33;100.00;98898.38;5024121;28;20029;-60
2022/09/21 07:05:03;;;;;;;31.15;5.32;;;;;;;8.62;100.00;98900.44;5038305;28;20040;-63
2022/09/21 07:07:29;;;;;;;25.33;5.13;;;;;;;9.16;100.00;98891.59;5038190;28;20091;-60
2022/09/21 07:09:57;;;;;;;42.38;6.00;;;;;;;9.41;100.00;98892.78;5038777;28;20115;-58
2022/09/21 07:12:24;;;;;;;29.00;4.45;;;;;;;8.83;100.00;98894.00;5037993;28;20037;-61
2022/09/21 07:14:49;;;;;;;31.30;4.53;;;;;;;9.09;100.00;98895.22;5038489;28;20025;-59
2022/09/21 07:17:15;;;;;;;60.42;5.30;;;;;;;8.61;100.00;98891.78;5038419;28;20044;-58
2022/09/21 07:19:40;;;;;;;67.40;8.32;;;;;;;8.78;100.00;98895.81;5033919;28;20036;-59
2022/09/21 07:22:06;;;;;;;127.72;6.22;;;;;;;9.97;100.00;98899.31;5036508;28;20619;-58
2022/09/21 07:24:32;;;;;;;63.40;5.28;;;;;;;10.12;100.00;98896.34;5039356;28;20482;-58
2022/09/21 07:26:57;;;;;;;25.15;5.05;;;;;;;9.97;100.00;98888.91;5036540;28;20567;-61
2022/09/21 07:29:22;;;;;;;19.67;4.10;;;;;;;9.95;100.00;98895.91;5036169;28;20032;-60
2022/09/21 07:31:48;;;;;;;55.85;5.53;;;;;;;9.27;100.00;98900.03;5034738;28;20502;-59
2022/09/21 07:34:13;;;;;;;27.67;5.53;;;;;;;9.51;100.00;98903.00;5033253;28;20600;-59
2022/09/21 07:36:39;;;;;;;66.95;9.18;;;;;;;9.79;100.00;98898.84;5035100;28;20037;-59
2022/09/21 07:39:05;;;;;;;33.10;5.63;;;;;;;10.42;100.00;98901.69;5032227;28;20513;-60
2022/09/21 07:41:30;;;;;;;20.25;4.80;;;;;;;10.13;100.00;98895.44;5030805;28;20091;-59
2022/09/21 07:43:56;;;;;;;57.30;8.27;;;;;;;9.78;100.00;98902.38;5030722;28;20502;-60
2022/09/21 07:46:21;;;;;;;25.50;5.07;;;;;;;10.42;100.00;98901.69;5035327;28;20091;-59
2022/09/21 07:48:47;;;;;;;21.90;5.20;;;;;;;10.44;100.00;98902.53;5039538;28;20158;-57
2022/09/21 07:51:14;;;;;;;27.23;5.65;;;;;;;10.62;100.00;98893.34;5041031;28;20037;-59
2022/09/21 07:53:43;;;;;;;34.05;5.68;;;;;;;9.96;100.00;98895.88;5042851;28;20099;-59
2022/09/21 07:56:15;;;;;;;27.20;5.88;;;;;;;10.73;100.00;98893.06;5041717;28;20033;-59
2022/09/21 08:01:26;;;;;;;34.00;5.75;;;;;;;10.72;100.00;98896.56;5039403;28;20550;-57
2022/09/21 08:03:54;;;;;;;23.77;5.18;;;;;;;10.78;100.00;98889.41;5040523;28;20055;-58
2022/09/21 08:06:20;;;;;;;23.58;5.20;;;;;;;11.68;100.00;98887.66;5038332;28;20033;-58
2022/09/21 08:08:47;;;;;;;22.92;5.25;;;;;;;11.21;100.00;98886.50;5040289;28;20024;-60
2022/09/21 08:11:14;;;;;;;20.83;5.32;;;;;;;11.45;100.00;98885.78;5040083;28;20140;-57
2022/09/21 08:13:39;;;;;;;26.40;5.80;;;;;;;12.34;100.00;98879.47;5036588;28;20029;-58
2022/09/21 08:16:05;;;;;;;32.03;6.28;;;;;;;10.03;100.00;98888.75;5035549;28;20118;-60
2022/09/21 08:18:30;;;;;;;21.23;5.60;;;;;;;11.33;100.00;98893.97;5040815;28;20045;-61
2022/09/21 08:20:58;;;;;;;22.13;5.50;;;;;;;11.82;100.00;98902.03;5040284;28;20045;-60
2022/09/21 08:23:27;;;;;;;25.15;5.57;;;;;;;11.44;100.00;98888.44;5041459;28;20033;-60
2022/09/21 08:25:57;;;;;;;19.85;5.18;;;;;;;12.83;100.00;98892.56;5040796;28;20036;-57
2022/09/21 08:28:23;;;;;;;15.85;4.70;;;;;;;12.51;100.00;98887.56;5042620;28;20025;-58
2022/09/21 08:30:49;;;;;;;23.83;5.35;;;;;;;12.43;100.00;98889.59;5039740;28;20044;-62
2022/09/21 08:33:14;;;;;;;21.70;4.95;;;;;;;12.75;100.00;98890.25;5042790;28;20085;-58
2022/09/21 08:35:39;;;;;;;19.15;5.35;;;;;;;12.79;100.00;98889.25;5040655;28;20387;-57
2022/09/21 08:38:05;;;;;;;19.90;5.35;;;;;;;12.26;100.00;98892.81;5041268;28;20576;-59
2022/09/21 08:40:31;;;;;;;22.80;5.47;;;;;;;13.28;100.00;98884.78;5034981;28;20060;-60
2022/09/21 08:43:09;;;;;;;17.25;4.78;;;;;;;14.68;100.00;98875.69;5038903;28;20596;-58
2022/09/21 08:45:43;;;;;;;21.60;5.25;;;;;;;15.22;100.00;98875.94;5034635;28;20032;-59
2022/09/21 08:48:39;;;;;;;20.20;5.22;;;;;;;14.61;100.00;98876.88;5041364;28;20033;-57
2022/09/21 08:51:12;;;;;;;20.30;5.30;;;;;;;13.86;100.00;98886.09;5037876;28;20748;-59
2022/09/21 08:53:40;;;;;;;19.25;5.03;;;;;;;15.59;100.00;98880.31;5040296;28;20211;-58
2022/09/21 08:56:10;;;;;;;21.73;5.55;;;;;;;15.90;100.00;98876.25;5040966;28;20647;-59
2022/09/21 08:58:36;;;;;;;17.88;4.50;;;;;;;16.45;100.00;98872.63;5041241;28;20040;-57
2022/09/21 09:01:20;;;;;;;14.35;4.15;;;;;;;16.98;100.00;98872.56;5039841;28;20037;-57
2022/09/21 09:04:07;;;;;;;13.50;4.18;;;;;;;17.08;100.00;98874.63;5041126;28;20104;-57
2022/09/21 09:06:39;;;;;;;18.67;4.88;;;;;;;19.94;100.00;98887.75;5037787;28;20037;-57
2022/09/21 09:09:20;;;;;;;18.77;5.00;;;;;;;18.86;100.00;98874.19;5038030;28;20121;-59
2022/09/21 09:12:12;;;;;;;16.38;4.25;;;;;;;20.26;100.00;98874.19;5037241;28;20043;-57
2022/09/21 09:14:52;;;;;;;15.23;4.07;;;;;;;21.26;96.95;98878.78;5038633;28;20036;-59
2022/09/21 09:17:30;;;;;;;15.32;4.22;;;;;;;21.85;95.11;98879.91;5036988;28;20056;-58
2022/09/21 09:20:20;;;;;;;12.63;3.80;;;;;;;21.88;87.00;98885.00;5039859;28;20052;-58
2022/09/21 09:22:55;;;;;;;11.48;3.80;;;;;;;22.54;82.26;98887.22;5040273;28;20576;-58
2022/09/21 09:25:23;;;;;;;13.25;3.90;;;;;;;22.29;81.49;98879.28;5040318;28;20091;-61
2022/09/21 09:27:52;;;;;;;10.77;3.60;;;;;;;21.33;88.74;98874.72;5041128;28;20153;-58
2022/09/21 09:30:22;;;;;;;14.25;3.95;;;;;;;23.04;78.04;98880.66;5040646;28;20040;-59
2022/09/21 09:32:50;;;;;;;11.15;3.40;;;;;;;22.06;86.54;98869.53;5039481;28;20104;-57
2022/09/21 09:35:28;;;;;;;13.82;3.83;;;;;;;20.76;86.47;98875.22;5039226;28;20522;-57
2022/09/21 09:38:25;;;;;;;20.45;4.63;;;;;;;21.48;85.67;98861.34;5035594;28;20577;-57
2022/09/21 09:41:19;;;;;;;16.13;4.20;;;;;;;19.90;90.55;98865.06;5035544;28;20120;-57
2022/09/21 09:44:04;;;;;;;15.77;4.05;;;;;;;18.98;100.00;98858.53;5036253;28;20029;-60
2022/09/21 09:46:56;;;;;;;10.05;3.15;;;;;;;21.04;88.13;98852.06;5039218;28;20036;-58
2022/09/21 09:49:34;;;;;;;12.30;3.75;;;;;;;20.64;88.60;98844.25;5039855;28;20039;-61
2022/09/21 09:52:00;;;;;;;12.93;3.78;;;;;;;21.36;79.39;98855.09;5039239;28;20048;-59
2022/09/21 09:54:28;;;;;;;10.57;3.47;;;;;;;21.31;81.11;98850.13;5040459;28;20028;-59
2022/09/21 09:56:54;;;;;;;10.38;3.38;;;;;;;21.86;78.88;98845.28;5036626;28;20053;-58
2022/09/21 09:59:29;;;;;;;11.82;3.53;;;;;;;21.08;75.63;98848.25;5039890;28;20570;-59
2022/09/21 10:02:05;;;;;;;9.98;3.13;;;;;;;22.54;75.83;98839.38;5037678;28;20068;-60
2022/09/21 10:04:32;;;;;;;10.57;3.45;;;;;;;23.22;69.35;98846.44;5038256;28;20029;-57
2022/09/21 10:06:58;;;;;;;17.02;4.05;;;;;;;23.50;67.41;98844.22;5034256;28;20037;-60
2022/09/21 10:09:23;;;;;;;11.55;3.45;;;;;;;22.68;66.75;98847.09;5035677;28;20086;-60
2022/09/21 10:11:50;;;;;;;9.77;3.05;;;;;;;22.45;71.82;98835.59;5035122;28;20037;-59
2022/09/21 10:14:20;;;;;;;11.88;3.17;;;;;;;23.60;65.70;98839.84;5037219;28;20190;-58
2022/09/21 10:16:50;;;;;;;13.70;3.63;;;;;;;21.82;64.41;98835.84;5034416;28;20351;-57
2022/09/21 10:19:23;;;;;;;14.75;3.47;;;;;;;22.97;56.51;98830.69;5038263;28;20510;-59
2022/09/21 10:21:55;;;;;;;11.85;2.90;;;;;;;21.77;56.19;98823.88;5038173;28;20064;-60
2022/09/21 10:24:32;;;;;;;10.50;2.97;;;;;;;22.79;56.81;98823.22;5039998;28;20032;-59
2022/09/21 10:27:15;;;;;;;8.40;2.53;;;;;;;21.74;50.21;98823.16;5039009;28;20578;-59
2022/09/21 10:29:45;;;;;;;8.68;2.63;;;;;;;21.41;54.03;98807.81;5038676;28;20029;-60
2022/09/21 10:32:11;;;;;;;10.50;2.85;;;;;;;23.02;51.81;98817.88;5037617;28;20065;-57
2022/09/21 10:34:40;;;;;;;10.63;2.83;;;;;;;20.91;54.22;98810.50;5038293;28;20079;-59
2022/09/21 10:37:24;;;;;;;11.77;2.97;;;;;;;23.15;53.13;98812.44;5035044;28;20451;-59
2022/09/21 10:39:49;;;;;;;13.45;3.42;;;;;;;21.14;55.23;98805.38;5036634;28;20036;-61
2022/09/21 10:42:17;;;;;;;12.23;3.20;;;;;;;22.21;55.82;98806.41;5035326;28;20033;-56
2022/09/21 10:44:45;;;;;;;13.85;3.30;;;;;;;24.58;44.99;98806.00;5025959;28;20051;-57
2022/09/21 10:47:29;;;;;;;13.75;2.97;;;;;;;22.32;42.82;98811.78;5033856;28;20028;-56
2022/09/21 10:49:57;;;;;;;8.10;2.03;;;;;;;23.50;43.10;98806.94;5035982;28;20773;-56
2022/09/21 10:52:30;;;;;;;11.50;2.65;;;;;;;22.97;42.95;98804.91;5034469;28;20459;-59
2022/09/21 10:54:56;;;;;;;12.50;2.92;;;;;;;21.70;48.01;98805.72;5035556;28;20422;-58
2022/09/21 10:57:24;;;;;;;12.02;3.05;;;;;;;20.45;47.43;98797.78;5036128;28;20037;-58
2022/09/21 10:59:50;;;;;;;23.17;4.43;;;;;;;19.61;53.97;98806.91;5033800;28;20040;-61
2022/09/21 11:02:30;;;;;;;16.00;3.15;;;;;;;18.62;50.52;98797.22;5033780;28;20044;-60
2022/09/21 11:05:18;;;;;;;10.13;2.40;;;;;;;20.32;49.07;98800.44;5036610;28;20029;-63
2022/09/21 11:07:50;;;;;;;14.75;3.20;;;;;;;20.63;47.23;98802.81;5036193;28;20045;-61
2022/09/21 11:10:23;;;;;;;14.20;2.75;;;;;;;22.16;46.09;98805.91;5036301;28;20025;-60
2022/09/21 11:13:18;;;;;;;14.55;2.80;;;;;;;20.85;44.83;98810.94;5034564;28;20052;-58
2022/09/21 11:15:53;;;;;;;14.13;3.03;;;;;;;21.79;43.07;98800.72;5032258;28;20052;-61
2022/09/21 11:18:29;;;;;;;17.50;3.50;;;;;;;21.40;43.31;98805.31;5036638;28;20036;-60
2022/09/21 11:21:10;;;;;;;16.63;3.30;;;;;;;20.15;47.85;98795.44;5035047;28;20049;-61
2022/09/21 11:23:42;;;;;;;17.27;3.58;;;;;;;20.72;45.47;98800.34;5036031;28;20720;-58
2022/09/21 11:26:26;;;;;;;19.63;3.78;;;;;;;20.68;47.06;98798.03;5038196;28;20036;-59
2022/09/21 11:29:00;;;;;;;20.08;3.60;;;;;;;20.53;44.11;98792.81;5038342;28;20035;-57
2022/09/21 11:31:30;;;;;;;16.52;3.40;;;;;;;21.34;44.04;98796.84;5037877;28;20040;-56
2022/09/21 11:34:05;;;;;;;19.63;3.75;;;;;;;19.24;50.91;98793.41;5040283;28;20043;-56
2022/09/21 11:37:08;;;;;;;14.15;3.05;;;;;;;18.19;53.57;98789.25;5039316;28;20048;-61
2022/09/21 11:39:49;;;;;;;14.82;2.90;;;;;;;17.72;52.80;98779.69;5038752;28;20025;-59
2022/09/21 11:42:47;;;;;;;19.15;3.38;;;;;;;18.35;52.39;98783.06;5038079;28;20068;-63